sensor_id;sensor_type;location;lat;lon;timestamp;P1;durP1;ratioP1;P2;durP2;ratioP2
56401;SDS011;42299;35.160;26.100;2023-02-28T00:00:13;12.88;;;7.10;;
56401;SDS011;42299;35.160;26.100;2023-02-28T00:01:35;12.57;;;6.97;;
56401;SDS011;42299;35.160;26.100;2023-02-28T00:02:57;11.68;;;7.18;;
56401;SDS011;42299;35.160;26.100;2023-02-28T00:04:20;11.80;;;7.35;;
56401;SDS011;42299;35.160;26.100;2023-02-28T00:05:42;12.60;;;7.35;;
56401;SDS011;42299;35.160;26.100;2023-02-28T00:07:03;10.90;;;7.18;;
56401;SDS011;42299;35.160;26.100;2023-02-28T00:08:26;9.10;;;5.25;;
56401;SDS011;42299;35.160;26.100;2023-02-28T00:09:47;11.82;;;7.55;;
56401;SDS011;42299;35.160;26.100;2023-02-28T00:11:12;12.52;;;6.82;;
56401;SDS011;42299;35.160;26.100;2023-02-28T00:12:35;12.85;;;7.50;;
56401;SDS011;42299;35.160;26.100;2023-02-28T00:13:57;12.57;;;6.70;;
56401;SDS011;42299;35.160;26.100;2023-02-28T00:15:20;13.68;;;7.88;;
56401;SDS011;42299;35.160;26.100;2023-02-28T00:16:43;12.63;;;7.10;;
56401;SDS011;42299;35.160;26.100;2023-02-28T00:18:05;11.50;;;6.72;;
56401;SDS011;42299;35.160;26.100;2023-02-28T00:19:27;9.13;;;6.22;;
56401;SDS011;42299;35.160;26.100;2023-02-28T00:20:49;12.27;;;6.78;;
56401;SDS011;42299;35.160;26.100;2023-02-28T00:22:10;14.07;;;6.82;;
56401;SDS011;42299;35.160;26.100;2023-02-28T00:23:33;10.15;;;6.35;;
56401;SDS011;42299;35.160;26.100;2023-02-28T00:24:55;9.32;;;5.20;;
56401;SDS011;42299;35.160;26.100;2023-02-28T00:26:18;11.35;;;5.15;;
56401;SDS011;42299;35.160;26.100;2023-02-28T00:27:41;10.85;;;4.78;;
56401;SDS011;42299;35.160;26.100;2023-02-28T00:29:02;9.30;;;4.63;;
56401;SDS011;42299;35.160;26.100;2023-02-28T00:30:25;8.50;;;4.50;;
56401;SDS011;42299;35.160;26.100;2023-02-28T00:31:46;9.18;;;4.57;;
56401;SDS011;42299;35.160;26.100;2023-02-28T00:33:09;9.90;;;4.55;;
56401;SDS011;42299;35.160;26.100;2023-02-28T00:34:31;7.90;;;5.10;;
56401;SDS011;42299;35.160;26.100;2023-02-28T00:36:01;8.93;;;4.65;;
56401;SDS011;42299;35.160;26.100;2023-02-28T00:37:30;9.50;;;4.25;;
56401;SDS011;42299;35.160;26.100;2023-02-28T00:38:51;6.43;;;3.47;;
56401;SDS011;42299;35.160;26.100;2023-02-28T00:40:14;6.25;;;3.50;;
56401;SDS011;42299;35.160;26.100;2023-02-28T00:41:37;7.18;;;4.35;;
56401;SDS011;42299;35.160;26.100;2023-02-28T00:42:59;10.75;;;5.32;;
56401;SDS011;42299;35.160;26.100;2023-02-28T00:44:21;8.70;;;5.00;;
56401;SDS011;42299;35.160;26.100;2023-02-28T00:45:43;7.80;;;4.55;;
56401;SDS011;42299;35.160;26.100;2023-02-28T00:47:06;7.32;;;3.85;;
56401;SDS011;42299;35.160;26.100;2023-02-28T00:48:27;8.77;;;4.00;;
56401;SDS011;42299;35.160;26.100;2023-02-28T00:49:49;6.40;;;3.83;;
56401;SDS011;42299;35.160;26.100;2023-02-28T00:51:11;5.68;;;3.75;;
56401;SDS011;42299;35.160;26.100;2023-02-28T00:52:33;5.30;;;2.40;;
56401;SDS011;42299;35.160;26.100;2023-02-28T00:53:55;6.93;;;2.03;;
56401;SDS011;42299;35.160;26.100;2023-02-28T00:55:18;6.32;;;1.98;;
56401;SDS011;42299;35.160;26.100;2023-02-28T00:56:43;7.57;;;3.03;;
56401;SDS011;42299;35.160;26.100;2023-02-28T00:58:06;6.72;;;2.63;;
56401;SDS011;42299;35.160;26.100;2023-02-28T00:59:28;5.00;;;1.90;;
56401;SDS011;42299;35.160;26.100;2023-02-28T01:00:50;5.78;;;2.83;;
56401;SDS011;42299;35.160;26.100;2023-02-28T01:02:13;6.35;;;2.58;;
56401;SDS011;42299;35.160;26.100;2023-02-28T01:03:34;8.82;;;3.22;;
56401;SDS011;42299;35.160;26.100;2023-02-28T01:04:57;6.00;;;2.22;;
56401;SDS011;42299;35.160;26.100;2023-02-28T01:06:19;8.27;;;2.58;;
56401;SDS011;42299;35.160;26.100;2023-02-28T01:07:40;6.18;;;2.58;;
56401;SDS011;42299;35.160;26.100;2023-02-28T01:09:03;6.03;;;2.17;;
56401;SDS011;42299;35.160;26.100;2023-02-28T01:10:25;5.65;;;2.70;;
56401;SDS011;42299;35.160;26.100;2023-02-28T01:11:53;4.78;;;2.50;;
56401;SDS011;42299;35.160;26.100;2023-02-28T01:13:14;7.57;;;3.22;;
56401;SDS011;42299;35.160;26.100;2023-02-28T01:14:37;6.80;;;2.88;;
56401;SDS011;42299;35.160;26.100;2023-02-28T01:15:59;6.25;;;2.78;;
56401;SDS011;42299;35.160;26.100;2023-02-28T01:17:20;7.53;;;2.88;;
56401;SDS011;42299;35.160;26.100;2023-02-28T01:18:43;4.60;;;2.60;;
56401;SDS011;42299;35.160;26.100;2023-02-28T01:20:05;8.50;;;3.55;;
56401;SDS011;42299;35.160;26.100;2023-02-28T01:21:28;8.85;;;3.25;;
56401;SDS011;42299;35.160;26.100;2023-02-28T01:22:49;7.18;;;3.22;;
56401;SDS011;42299;35.160;26.100;2023-02-28T01:24:12;8.32;;;3.10;;
56401;SDS011;42299;35.160;26.100;2023-02-28T01:25:34;7.38;;;4.13;;
56401;SDS011;42299;35.160;26.100;2023-02-28T01:27:00;7.68;;;3.00;;
56401;SDS011;42299;35.160;26.100;2023-02-28T01:28:21;9.43;;;3.08;;
56401;SDS011;42299;35.160;26.100;2023-02-28T01:29:44;8.45;;;3.50;;
56401;SDS011;42299;35.160;26.100;2023-02-28T01:31:06;7.90;;;3.25;;
56401;SDS011;42299;35.160;26.100;2023-02-28T01:32:31;7.85;;;3.33;;
56401;SDS011;42299;35.160;26.100;2023-02-28T01:33:53;6.97;;;3.40;;
56401;SDS011;42299;35.160;26.100;2023-02-28T01:35:14;13.65;;;3.67;;
56401;SDS011;42299;35.160;26.100;2023-02-28T01:36:38;10.63;;;4.00;;
56401;SDS011;42299;35.160;26.100;2023-02-28T01:38:00;6.28;;;3.75;;
56401;SDS011;42299;35.160;26.100;2023-02-28T01:39:22;5.70;;;3.03;;
56401;SDS011;42299;35.160;26.100;2023-02-28T01:40:44;6.75;;;3.50;;
56401;SDS011;42299;35.160;26.100;2023-02-28T01:42:07;12.10;;;4.20;;
56401;SDS011;42299;35.160;26.100;2023-02-28T01:43:31;6.40;;;3.85;;
56401;SDS011;42299;35.160;26.100;2023-02-28T01:45:18;8.15;;;3.30;;
56401;SDS011;42299;35.160;26.100;2023-02-28T01:46:44;7.75;;;4.20;;
56401;SDS011;42299;35.160;26.100;2023-02-28T01:48:08;9.48;;;3.78;;
56401;SDS011;42299;35.160;26.100;2023-02-28T01:49:31;6.60;;;3.90;;
56401;SDS011;42299;35.160;26.100;2023-02-28T01:50:52;9.88;;;3.92;;
56401;SDS011;42299;35.160;26.100;2023-02-28T01:52:20;9.65;;;3.80;;
56401;SDS011;42299;35.160;26.100;2023-02-28T01:53:48;9.40;;;4.30;;
56401;SDS011;42299;35.160;26.100;2023-02-28T01:55:14;9.30;;;3.60;;
56401;SDS011;42299;35.160;26.100;2023-02-28T01:56:38;7.55;;;3.72;;
56401;SDS011;42299;35.160;26.100;2023-02-28T01:58:04;8.77;;;3.65;;
56401;SDS011;42299;35.160;26.100;2023-02-28T01:59:29;7.65;;;4.05;;
56401;SDS011;42299;35.160;26.100;2023-02-28T02:00:55;8.05;;;4.35;;
56401;SDS011;42299;35.160;26.100;2023-02-28T02:02:18;8.20;;;4.65;;
56401;SDS011;42299;35.160;26.100;2023-02-28T02:03:41;7.15;;;4.30;;
56401;SDS011;42299;35.160;26.100;2023-02-28T02:05:06;12.20;;;5.25;;
56401;SDS011;42299;35.160;26.100;2023-02-28T02:06:29;10.05;;;4.82;;
56401;SDS011;42299;35.160;26.100;2023-02-28T02:07:56;7.82;;;4.57;;
56401;SDS011;42299;35.160;26.100;2023-02-28T02:09:21;11.25;;;5.07;;
56401;SDS011;42299;35.160;26.100;2023-02-28T02:10:44;10.65;;;5.28;;
56401;SDS011;42299;35.160;26.100;2023-02-28T02:12:10;9.70;;;4.80;;
56401;SDS011;42299;35.160;26.100;2023-02-28T02:13:50;10.30;;;4.90;;
56401;SDS011;42299;35.160;26.100;2023-02-28T02:15:21;10.82;;;5.60;;
56401;SDS011;42299;35.160;26.100;2023-02-28T02:16:58;12.80;;;5.65;;
56401;SDS011;42299;35.160;26.100;2023-02-28T02:18:30;9.90;;;5.43;;
56401;SDS011;42299;35.160;26.100;2023-02-28T02:21:58;12.07;;;5.50;;
56401;SDS011;42299;35.160;26.100;2023-02-28T02:23:57;9.32;;;6.10;;
56401;SDS011;42299;35.160;26.100;2023-02-28T02:25:36;10.68;;;6.20;;
56401;SDS011;42299;35.160;26.100;2023-02-28T02:27:06;12.30;;;6.00;;
56401;SDS011;42299;35.160;26.100;2023-02-28T02:31:04;11.38;;;5.90;;
56401;SDS011;42299;35.160;26.100;2023-02-28T02:32:42;8.90;;;4.78;;
56401;SDS011;42299;35.160;26.100;2023-02-28T02:34:27;8.88;;;4.43;;
56401;SDS011;42299;35.160;26.100;2023-02-28T02:35:59;8.45;;;5.10;;
56401;SDS011;42299;35.160;26.100;2023-02-28T02:37:30;7.97;;;4.70;;
56401;SDS011;42299;35.160;26.100;2023-02-28T02:39:01;8.52;;;4.82;;
56401;SDS011;42299;35.160;26.100;2023-02-28T02:40:27;10.55;;;4.93;;
56401;SDS011;42299;35.160;26.100;2023-02-28T02:41:54;9.95;;;6.07;;
56401;SDS011;42299;35.160;26.100;2023-02-28T02:43:22;10.00;;;6.28;;
56401;SDS011;42299;35.160;26.100;2023-02-28T02:44:52;16.35;;;9.60;;
56401;SDS011;42299;35.160;26.100;2023-02-28T02:46:23;12.50;;;7.88;;
56401;SDS011;42299;35.160;26.100;2023-02-28T02:47:53;13.25;;;9.40;;
56401;SDS011;42299;35.160;26.100;2023-02-28T02:49:18;14.32;;;9.20;;
56401;SDS011;42299;35.160;26.100;2023-02-28T02:50:48;11.38;;;7.75;;
56401;SDS011;42299;35.160;26.100;2023-02-28T02:52:14;18.48;;;9.50;;
56401;SDS011;42299;35.160;26.100;2023-02-28T02:53:40;17.52;;;9.55;;
56401;SDS011;42299;35.160;26.100;2023-02-28T02:55:06;15.20;;;9.30;;
56401;SDS011;42299;35.160;26.100;2023-02-28T02:56:31;15.55;;;9.45;;
56401;SDS011;42299;35.160;26.100;2023-02-28T02:57:57;16.38;;;9.70;;
56401;SDS011;42299;35.160;26.100;2023-02-28T02:59:24;16.13;;;9.63;;
56401;SDS011;42299;35.160;26.100;2023-02-28T03:00:50;18.95;;;9.88;;
56401;SDS011;42299;35.160;26.100;2023-02-28T03:02:16;14.50;;;9.77;;
56401;SDS011;42299;35.160;26.100;2023-02-28T03:03:40;16.55;;;10.68;;
56401;SDS011;42299;35.160;26.100;2023-02-28T03:05:04;16.80;;;11.13;;
56401;SDS011;42299;35.160;26.100;2023-02-28T03:06:36;15.43;;;9.85;;
56401;SDS011;42299;35.160;26.100;2023-02-28T03:07:58;15.05;;;9.85;;
56401;SDS011;42299;35.160;26.100;2023-02-28T03:09:22;15.27;;;9.30;;
56401;SDS011;42299;35.160;26.100;2023-02-28T03:10:47;15.60;;;9.98;;
56401;SDS011;42299;35.160;26.100;2023-02-28T03:12:12;15.90;;;9.73;;
56401;SDS011;42299;35.160;26.100;2023-02-28T03:13:42;13.88;;;9.45;;
56401;SDS011;42299;35.160;26.100;2023-02-28T03:15:35;17.75;;;10.93;;
56401;SDS011;42299;35.160;26.100;2023-02-28T03:17:20;15.80;;;10.93;;
56401;SDS011;42299;35.160;26.100;2023-02-28T03:18:53;19.58;;;12.52;;
56401;SDS011;42299;35.160;26.100;2023-02-28T03:20:27;15.40;;;10.02;;
56401;SDS011;42299;35.160;26.100;2023-02-28T03:22:04;16.98;;;11.43;;
56401;SDS011;42299;35.160;26.100;2023-02-28T03:23:45;16.50;;;10.13;;
56401;SDS011;42299;35.160;26.100;2023-02-28T03:25:18;16.77;;;10.65;;
56401;SDS011;42299;35.160;26.100;2023-02-28T03:26:52;15.20;;;10.38;;
56401;SDS011;42299;35.160;26.100;2023-02-28T03:28:22;13.73;;;9.63;;
56401;SDS011;42299;35.160;26.100;2023-02-28T03:29:56;18.90;;;8.25;;
56401;SDS011;42299;35.160;26.100;2023-02-28T03:31:25;14.57;;;10.52;;
56401;SDS011;42299;35.160;26.100;2023-02-28T03:32:53;17.48;;;10.20;;
56401;SDS011;42299;35.160;26.100;2023-02-28T03:34:22;15.68;;;9.75;;
56401;SDS011;42299;35.160;26.100;2023-02-28T03:35:49;14.95;;;9.20;;
56401;SDS011;42299;35.160;26.100;2023-02-28T03:37:17;15.43;;;10.43;;
56401;SDS011;42299;35.160;26.100;2023-02-28T03:38:41;13.45;;;9.75;;
56401;SDS011;42299;35.160;26.100;2023-02-28T03:40:12;15.75;;;10.25;;
56401;SDS011;42299;35.160;26.100;2023-02-28T03:41:36;16.35;;;9.80;;
56401;SDS011;42299;35.160;26.100;2023-02-28T03:43:07;18.15;;;10.00;;
56401;SDS011;42299;35.160;26.100;2023-02-28T03:44:34;14.93;;;9.88;;
56401;SDS011;42299;35.160;26.100;2023-02-28T03:46:03;15.48;;;10.23;;
56401;SDS011;42299;35.160;26.100;2023-02-28T03:47:30;18.02;;;10.75;;
56401;SDS011;42299;35.160;26.100;2023-02-28T03:49:00;17.20;;;9.80;;
56401;SDS011;42299;35.160;26.100;2023-02-28T03:50:27;16.42;;;10.40;;
56401;SDS011;42299;35.160;26.100;2023-02-28T03:51:56;15.55;;;11.60;;
56401;SDS011;42299;35.160;26.100;2023-02-28T03:53:24;14.68;;;9.63;;
56401;SDS011;42299;35.160;26.100;2023-02-28T03:54:51;17.42;;;11.40;;
56401;SDS011;42299;35.160;26.100;2023-02-28T03:56:16;18.00;;;10.18;;
56401;SDS011;42299;35.160;26.100;2023-02-28T03:57:43;14.73;;;10.55;;
56401;SDS011;42299;35.160;26.100;2023-02-28T03:59:15;14.85;;;9.98;;
56401;SDS011;42299;35.160;26.100;2023-02-28T04:00:43;19.35;;;9.88;;
56401;SDS011;42299;35.160;26.100;2023-02-28T04:02:09;16.13;;;10.50;;
56401;SDS011;42299;35.160;26.100;2023-02-28T04:03:31;17.40;;;10.57;;
56401;SDS011;42299;35.160;26.100;2023-02-28T04:04:52;16.65;;;11.30;;
56401;SDS011;42299;35.160;26.100;2023-02-28T04:06:16;16.40;;;10.77;;
56401;SDS011;42299;35.160;26.100;2023-02-28T04:07:39;16.27;;;9.30;;
56401;SDS011;42299;35.160;26.100;2023-02-28T04:09:04;15.07;;;10.07;;
56401;SDS011;42299;35.160;26.100;2023-02-28T04:10:26;18.73;;;10.90;;
56401;SDS011;42299;35.160;26.100;2023-02-28T04:11:49;16.65;;;10.93;;
56401;SDS011;42299;35.160;26.100;2023-02-28T04:13:12;17.77;;;9.90;;
56401;SDS011;42299;35.160;26.100;2023-02-28T04:14:34;20.10;;;10.70;;
56401;SDS011;42299;35.160;26.100;2023-02-28T04:15:56;14.82;;;10.20;;
56401;SDS011;42299;35.160;26.100;2023-02-28T04:17:19;14.45;;;10.18;;
56401;SDS011;42299;35.160;26.100;2023-02-28T04:18:41;16.85;;;9.90;;
56401;SDS011;42299;35.160;26.100;2023-02-28T04:21:30;16.55;;;9.75;;
56401;SDS011;42299;35.160;26.100;2023-02-28T04:22:53;15.60;;;10.75;;
56401;SDS011;42299;35.160;26.100;2023-02-28T04:24:17;15.02;;;9.75;;
56401;SDS011;42299;35.160;26.100;2023-02-28T04:25:41;18.58;;;12.23;;
56401;SDS011;42299;35.160;26.100;2023-02-28T04:27:02;18.67;;;10.98;;
56401;SDS011;42299;35.160;26.100;2023-02-28T04:28:25;17.02;;;10.48;;
56401;SDS011;42299;35.160;26.100;2023-02-28T04:29:47;16.30;;;10.43;;
56401;SDS011;42299;35.160;26.100;2023-02-28T04:31:09;17.05;;;10.98;;
56401;SDS011;42299;35.160;26.100;2023-02-28T04:32:31;18.02;;;11.23;;
56401;SDS011;42299;35.160;26.100;2023-02-28T04:33:53;15.82;;;9.95;;
56401;SDS011;42299;35.160;26.100;2023-02-28T04:35:16;17.38;;;10.25;;
56401;SDS011;42299;35.160;26.100;2023-02-28T04:36:37;19.23;;;12.00;;
56401;SDS011;42299;35.160;26.100;2023-02-28T04:37:59;17.10;;;11.43;;
56401;SDS011;42299;35.160;26.100;2023-02-28T04:39:22;15.23;;;11.20;;
56401;SDS011;42299;35.160;26.100;2023-02-28T04:40:45;20.02;;;11.20;;
56401;SDS011;42299;35.160;26.100;2023-02-28T04:42:06;20.58;;;10.35;;
56401;SDS011;42299;35.160;26.100;2023-02-28T04:43:28;16.55;;;10.20;;
56401;SDS011;42299;35.160;26.100;2023-02-28T04:44:51;26.20;;;11.57;;
56401;SDS011;42299;35.160;26.100;2023-02-28T04:46:14;17.00;;;9.02;;
56401;SDS011;42299;35.160;26.100;2023-02-28T04:47:36;15.43;;;10.30;;
56401;SDS011;42299;35.160;26.100;2023-02-28T04:48:57;16.95;;;11.13;;
56401;SDS011;42299;35.160;26.100;2023-02-28T04:50:20;14.93;;;9.90;;
56401;SDS011;42299;35.160;26.100;2023-02-28T04:51:42;15.65;;;9.95;;
56401;SDS011;42299;35.160;26.100;2023-02-28T04:53:03;14.48;;;10.27;;
56401;SDS011;42299;35.160;26.100;2023-02-28T04:54:27;16.98;;;11.43;;
56401;SDS011;42299;35.160;26.100;2023-02-28T04:55:48;15.60;;;9.38;;
56401;SDS011;42299;35.160;26.100;2023-02-28T04:57:11;15.63;;;10.40;;
56401;SDS011;42299;35.160;26.100;2023-02-28T04:58:32;15.75;;;9.82;;
56401;SDS011;42299;35.160;26.100;2023-02-28T04:59:55;15.15;;;10.15;;
56401;SDS011;42299;35.160;26.100;2023-02-28T05:01:21;18.05;;;10.80;;
56401;SDS011;42299;35.160;26.100;2023-02-28T05:02:44;15.40;;;10.57;;
56401;SDS011;42299;35.160;26.100;2023-02-28T05:04:08;16.85;;;9.52;;
56401;SDS011;42299;35.160;26.100;2023-02-28T05:05:31;18.75;;;10.85;;
56401;SDS011;42299;35.160;26.100;2023-02-28T05:06:52;19.00;;;11.23;;
56401;SDS011;42299;35.160;26.100;2023-02-28T05:08:15;17.80;;;11.13;;
56401;SDS011;42299;35.160;26.100;2023-02-28T05:09:39;21.45;;;10.50;;
56401;SDS011;42299;35.160;26.100;2023-02-28T05:11:01;17.40;;;11.00;;
56401;SDS011;42299;35.160;26.100;2023-02-28T05:12:23;20.13;;;10.60;;
56401;SDS011;42299;35.160;26.100;2023-02-28T05:13:46;19.42;;;10.50;;
56401;SDS011;42299;35.160;26.100;2023-02-28T05:15:08;18.60;;;11.32;;
56401;SDS011;42299;35.160;26.100;2023-02-28T05:16:34;18.38;;;10.85;;
56401;SDS011;42299;35.160;26.100;2023-02-28T05:17:56;17.10;;;10.55;;
56401;SDS011;42299;35.160;26.100;2023-02-28T05:19:19;20.92;;;10.75;;
56401;SDS011;42299;35.160;26.100;2023-02-28T05:20:43;17.67;;;10.57;;
56401;SDS011;42299;35.160;26.100;2023-02-28T05:22:04;17.60;;;11.88;;
56401;SDS011;42299;35.160;26.100;2023-02-28T05:23:34;16.67;;;10.82;;
56401;SDS011;42299;35.160;26.100;2023-02-28T05:24:57;18.40;;;10.50;;
56401;SDS011;42299;35.160;26.100;2023-02-28T05:26:20;22.02;;;11.68;;
56401;SDS011;42299;35.160;26.100;2023-02-28T05:27:41;17.92;;;10.75;;
56401;SDS011;42299;35.160;26.100;2023-02-28T05:29:03;17.80;;;10.07;;
56401;SDS011;42299;35.160;26.100;2023-02-28T05:30:25;18.05;;;11.20;;
56401;SDS011;42299;35.160;26.100;2023-02-28T05:31:47;20.55;;;10.90;;
56401;SDS011;42299;35.160;26.100;2023-02-28T05:33:10;18.00;;;10.73;;
56401;SDS011;42299;35.160;26.100;2023-02-28T05:34:32;19.58;;;10.82;;
56401;SDS011;42299;35.160;26.100;2023-02-28T05:35:55;16.45;;;10.15;;
56401;SDS011;42299;35.160;26.100;2023-02-28T05:37:16;15.35;;;10.50;;
56401;SDS011;42299;35.160;26.100;2023-02-28T05:38:38;17.10;;;11.18;;
56401;SDS011;42299;35.160;26.100;2023-02-28T05:40:01;19.48;;;11.15;;
56401;SDS011;42299;35.160;26.100;2023-02-28T05:41:26;16.60;;;10.35;;
56401;SDS011;42299;35.160;26.100;2023-02-28T05:42:47;17.25;;;10.68;;
56401;SDS011;42299;35.160;26.100;2023-02-28T05:44:12;16.67;;;10.18;;
56401;SDS011;42299;35.160;26.100;2023-02-28T05:45:35;16.55;;;10.25;;
56401;SDS011;42299;35.160;26.100;2023-02-28T05:46:56;18.38;;;11.63;;
56401;SDS011;42299;35.160;26.100;2023-02-28T05:48:18;17.30;;;11.00;;
56401;SDS011;42299;35.160;26.100;2023-02-28T05:49:40;26.48;;;16.48;;
56401;SDS011;42299;35.160;26.100;2023-02-28T05:51:02;21.63;;;14.82;;
56401;SDS011;42299;35.160;26.100;2023-02-28T05:52:25;29.38;;;18.15;;
56401;SDS011;42299;35.160;26.100;2023-02-28T05:53:47;27.20;;;14.48;;
56401;SDS011;42299;35.160;26.100;2023-02-28T05:55:11;19.35;;;11.75;;
56401;SDS011;42299;35.160;26.100;2023-02-28T05:56:33;16.75;;;10.85;;
56401;SDS011;42299;35.160;26.100;2023-02-28T05:57:58;16.92;;;11.32;;
56401;SDS011;42299;35.160;26.100;2023-02-28T05:59:19;19.52;;;11.57;;
56401;SDS011;42299;35.160;26.100;2023-02-28T06:00:41;21.20;;;11.13;;
56401;SDS011;42299;35.160;26.100;2023-02-28T06:02:03;18.90;;;10.70;;
56401;SDS011;42299;35.160;26.100;2023-02-28T06:03:25;18.45;;;11.77;;
56401;SDS011;42299;35.160;26.100;2023-02-28T06:04:48;18.75;;;12.07;;
56401;SDS011;42299;35.160;26.100;2023-02-28T06:06:10;15.02;;;10.70;;
56401;SDS011;42299;35.160;26.100;2023-02-28T06:07:33;17.63;;;11.60;;
56401;SDS011;42299;35.160;26.100;2023-02-28T06:08:55;18.92;;;11.65;;
56401;SDS011;42299;35.160;26.100;2023-02-28T06:10:20;20.50;;;11.63;;
56401;SDS011;42299;35.160;26.100;2023-02-28T06:11:42;29.45;;;17.85;;
56401;SDS011;42299;35.160;26.100;2023-02-28T06:13:05;30.85;;;20.45;;
56401;SDS011;42299;35.160;26.100;2023-02-28T06:14:27;22.50;;;14.20;;
56401;SDS011;42299;35.160;26.100;2023-02-28T06:15:51;23.10;;;14.05;;
56401;SDS011;42299;35.160;26.100;2023-02-28T06:17:13;17.02;;;11.55;;
56401;SDS011;42299;35.160;26.100;2023-02-28T06:18:36;16.73;;;11.95;;
56401;SDS011;42299;35.160;26.100;2023-02-28T06:19:58;19.27;;;12.32;;
56401;SDS011;42299;35.160;26.100;2023-02-28T06:21:20;17.58;;;10.60;;
56401;SDS011;42299;35.160;26.100;2023-02-28T06:22:42;18.00;;;11.85;;
56401;SDS011;42299;35.160;26.100;2023-02-28T06:24:05;21.23;;;11.85;;
56401;SDS011;42299;35.160;26.100;2023-02-28T06:25:30;19.85;;;11.50;;
56401;SDS011;42299;35.160;26.100;2023-02-28T06:26:51;20.40;;;11.30;;
56401;SDS011;42299;35.160;26.100;2023-02-28T06:28:13;15.77;;;10.93;;
56401;SDS011;42299;35.160;26.100;2023-02-28T06:29:35;18.85;;;11.10;;
56401;SDS011;42299;35.160;26.100;2023-02-28T06:31:04;31.23;;;17.05;;
56401;SDS011;42299;35.160;26.100;2023-02-28T06:32:28;21.60;;;15.98;;
56401;SDS011;42299;35.160;26.100;2023-02-28T06:33:50;21.38;;;12.35;;
56401;SDS011;42299;35.160;26.100;2023-02-28T06:35:12;21.13;;;13.57;;
56401;SDS011;42299;35.160;26.100;2023-02-28T06:36:34;21.20;;;12.45;;
56401;SDS011;42299;35.160;26.100;2023-02-28T06:37:57;18.98;;;11.85;;
56401;SDS011;42299;35.160;26.100;2023-02-28T06:39:19;19.95;;;11.65;;
56401;SDS011;42299;35.160;26.100;2023-02-28T06:40:43;18.13;;;12.38;;
56401;SDS011;42299;35.160;26.100;2023-02-28T06:42:04;17.88;;;11.88;;
56401;SDS011;42299;35.160;26.100;2023-02-28T06:43:27;20.25;;;11.82;;
56401;SDS011;42299;35.160;26.100;2023-02-28T06:44:51;19.60;;;11.05;;
56401;SDS011;42299;35.160;26.100;2023-02-28T06:46:13;17.35;;;10.68;;
56401;SDS011;42299;35.160;26.100;2023-02-28T06:47:36;21.58;;;11.68;;
56401;SDS011;42299;35.160;26.100;2023-02-28T06:48:59;16.65;;;11.35;;
56401;SDS011;42299;35.160;26.100;2023-02-28T06:50:21;19.60;;;11.80;;
56401;SDS011;42299;35.160;26.100;2023-02-28T06:51:44;16.95;;;10.68;;
56401;SDS011;42299;35.160;26.100;2023-02-28T06:53:07;19.48;;;10.70;;
56401;SDS011;42299;35.160;26.100;2023-02-28T06:54:29;18.52;;;11.15;;
56401;SDS011;42299;35.160;26.100;2023-02-28T06:55:52;23.15;;;13.05;;
56401;SDS011;42299;35.160;26.100;2023-02-28T06:57:15;21.63;;;13.07;;
56401;SDS011;42299;35.160;26.100;2023-02-28T06:58:37;24.75;;;13.70;;
56401;SDS011;42299;35.160;26.100;2023-02-28T07:00:02;18.63;;;13.02;;
56401;SDS011;42299;35.160;26.100;2023-02-28T07:01:28;23.17;;;14.18;;
56401;SDS011;42299;35.160;26.100;2023-02-28T07:02:52;18.58;;;12.73;;
56401;SDS011;42299;35.160;26.100;2023-02-28T07:04:15;21.05;;;12.05;;
56401;SDS011;42299;35.160;26.100;2023-02-28T07:05:38;30.38;;;13.45;;
56401;SDS011;42299;35.160;26.100;2023-02-28T07:07:01;23.58;;;13.23;;
56401;SDS011;42299;35.160;26.100;2023-02-28T07:08:23;17.75;;;11.38;;
56401;SDS011;42299;35.160;26.100;2023-02-28T07:09:45;21.65;;;11.50;;
56401;SDS011;42299;35.160;26.100;2023-02-28T07:11:09;19.15;;;12.02;;
56401;SDS011;42299;35.160;26.100;2023-02-28T07:12:32;19.80;;;11.55;;
56401;SDS011;42299;35.160;26.100;2023-02-28T07:13:55;20.90;;;11.18;;
56401;SDS011;42299;35.160;26.100;2023-02-28T07:15:18;17.50;;;11.85;;
56401;SDS011;42299;35.160;26.100;2023-02-28T07:16:40;18.90;;;11.63;;
56401;SDS011;42299;35.160;26.100;2023-02-28T07:18:02;20.67;;;14.40;;
56401;SDS011;42299;35.160;26.100;2023-02-28T07:19:25;23.08;;;12.05;;
56401;SDS011;42299;35.160;26.100;2023-02-28T07:20:47;21.77;;;12.30;;
56401;SDS011;42299;35.160;26.100;2023-02-28T07:22:09;22.88;;;12.98;;
56401;SDS011;42299;35.160;26.100;2023-02-28T07:23:32;23.33;;;14.18;;
56401;SDS011;42299;35.160;26.100;2023-02-28T07:24:54;19.95;;;12.13;;
56401;SDS011;42299;35.160;26.100;2023-02-28T07:26:19;22.20;;;13.23;;
56401;SDS011;42299;35.160;26.100;2023-02-28T07:27:41;24.67;;;12.40;;
56401;SDS011;42299;35.160;26.100;2023-02-28T07:29:04;17.35;;;11.68;;
56401;SDS011;42299;35.160;26.100;2023-02-28T07:30:26;20.88;;;12.93;;
56401;SDS011;42299;35.160;26.100;2023-02-28T07:31:48;21.75;;;13.23;;
56401;SDS011;42299;35.160;26.100;2023-02-28T07:33:13;23.23;;;13.88;;
56401;SDS011;42299;35.160;26.100;2023-02-28T07:34:35;25.77;;;17.08;;
56401;SDS011;42299;35.160;26.100;2023-02-28T07:36:00;24.05;;;13.93;;
56401;SDS011;42299;35.160;26.100;2023-02-28T07:37:23;22.27;;;13.63;;
56401;SDS011;42299;35.160;26.100;2023-02-28T07:38:45;26.13;;;13.45;;
56401;SDS011;42299;35.160;26.100;2023-02-28T07:40:10;21.40;;;13.18;;
56401;SDS011;42299;35.160;26.100;2023-02-28T07:41:34;24.17;;;13.73;;
56401;SDS011;42299;35.160;26.100;2023-02-28T07:43:03;23.88;;;12.52;;
56401;SDS011;42299;35.160;26.100;2023-02-28T07:44:26;20.92;;;11.82;;
56401;SDS011;42299;35.160;26.100;2023-02-28T07:45:48;21.20;;;12.68;;
56401;SDS011;42299;35.160;26.100;2023-02-28T07:47:10;23.15;;;12.45;;
56401;SDS011;42299;35.160;26.100;2023-02-28T07:48:33;22.08;;;11.95;;
56401;SDS011;42299;35.160;26.100;2023-02-28T07:49:55;19.63;;;11.70;;
56401;SDS011;42299;35.160;26.100;2023-02-28T07:51:18;20.35;;;12.60;;
56401;SDS011;42299;35.160;26.100;2023-02-28T07:52:41;21.42;;;14.75;;
56401;SDS011;42299;35.160;26.100;2023-02-28T07:54:03;25.17;;;14.88;;
56401;SDS011;42299;35.160;26.100;2023-02-28T07:55:26;21.95;;;13.25;;
56401;SDS011;42299;35.160;26.100;2023-02-28T07:56:50;23.55;;;11.60;;
56401;SDS011;42299;35.160;26.100;2023-02-28T07:58:12;18.85;;;11.88;;
56401;SDS011;42299;35.160;26.100;2023-02-28T07:59:34;20.30;;;11.82;;
56401;SDS011;42299;35.160;26.100;2023-02-28T08:00:57;21.20;;;13.00;;
56401;SDS011;42299;35.160;26.100;2023-02-28T08:02:26;21.90;;;13.10;;
56401;SDS011;42299;35.160;26.100;2023-02-28T08:03:48;20.15;;;12.57;;
56401;SDS011;42299;35.160;26.100;2023-02-28T08:05:11;17.92;;;11.07;;
56401;SDS011;42299;35.160;26.100;2023-02-28T08:06:33;19.38;;;12.30;;
56401;SDS011;42299;35.160;26.100;2023-02-28T08:07:55;22.38;;;11.77;;
56401;SDS011;42299;35.160;26.100;2023-02-28T08:09:18;21.63;;;11.77;;
56401;SDS011;42299;35.160;26.100;2023-02-28T08:10:40;24.98;;;12.05;;
56401;SDS011;42299;35.160;26.100;2023-02-28T08:12:04;19.10;;;11.55;;
56401;SDS011;42299;35.160;26.100;2023-02-28T08:13:28;22.88;;;11.30;;
56401;SDS011;42299;35.160;26.100;2023-02-28T08:14:51;21.38;;;12.50;;
56401;SDS011;42299;35.160;26.100;2023-02-28T08:16:13;18.80;;;11.30;;
56401;SDS011;42299;35.160;26.100;2023-02-28T08:17:41;21.85;;;10.93;;